createdAt,value
2022-07-28T00:02:16.160Z,100324.64
2022-07-28T00:04:49.149Z,100318.85
2022-07-28T00:07:21.950Z,100319.70
2022-07-28T00:10:00.310Z,100321.16
2022-07-28T00:12:34.352Z,100319.40
2022-07-28T00:15:10.319Z,100326.44
2022-07-28T00:17:42.715Z,100334.27
2022-07-28T00:20:15.741Z,100334.31
2022-07-28T00:22:48.612Z,100334.99
2022-07-28T00:25:22.017Z,100341.75
2022-07-28T00:28:09.306Z,100333.64
2022-07-28T00:30:44.193Z,100336.84
2022-07-28T00:33:17.257Z,100339.27
2022-07-28T00:35:49.893Z,100335.19
2022-07-28T00:38:26.008Z,100334.42
2022-07-28T00:41:13.875Z,100341.92
2022-07-28T00:43:48.786Z,100342.65
2022-07-28T00:46:27.395Z,100341.46
2022-07-28T00:49:00.181Z,100349.57
2022-07-28T00:51:33.114Z,100347.27
2022-07-28T00:54:07.848Z,100347.48
2022-07-28T00:56:41.208Z,100340.98
2022-07-28T00:59:13.550Z,100345.39
2022-07-28T01:01:46.385Z,100351.34
2022-07-28T01:04:19.656Z,100348.69
2022-07-28T01:07:09.530Z,100346.38
2022-07-28T01:09:54.656Z,100344.91
2022-07-28T01:12:39.574Z,100346.63
2022-07-28T01:15:25.479Z,100347.83
2022-07-28T01:18:05.039Z,100355.42
2022-07-28T01:20:41.176Z,100354.56
2022-07-28T01:23:45.967Z,100357.18
2022-07-28T01:26:39.924Z,100358.67
2022-07-28T01:29:27.683Z,100357.29
2022-07-28T01:32:07.876Z,100360.27
2022-07-28T01:34:50.444Z,100355.66
2022-07-28T01:37:26.566Z,100354.89
2022-07-28T01:40:01.768Z,100355.73
2022-07-28T01:42:38.730Z,100353.27
2022-07-28T01:45:13.839Z,100356.03
2022-07-28T01:47:48.126Z,100358.96
2022-07-28T01:50:24.346Z,100363.20
2022-07-28T01:52:58.379Z,100355.36
2022-07-28T01:55:31.773Z,100358.71
2022-07-28T01:58:06.568Z,100352.48
2022-07-28T02:00:40.317Z,100354.96
2022-07-28T02:03:14.424Z,100353.30
2022-07-28T02:05:53.054Z,100355.03
2022-07-28T02:08:27.862Z,100356.43
2022-07-28T02:11:21.033Z,100358.80
2022-07-28T02:13:56.966Z,100362.31
2022-07-28T02:16:31.790Z,100363.20
2022-07-28T02:19:06.090Z,100363.55
2022-07-28T02:21:40.830Z,100378.25
2022-07-28T02:24:15.716Z,100380.08
2022-07-28T02:26:55.047Z,100378.13
2022-07-28T02:29:58.241Z,100386.77
2022-07-28T02:32:28.682Z,100388.78
2022-07-28T02:35:09.458Z,100388.13
2022-07-28T02:37:51.405Z,100387.20
2022-07-28T02:40:29.907Z,100388.61
2022-07-28T02:43:03.328Z,100388.83
2022-07-28T02:45:39.872Z,100394.84
2022-07-28T02:48:26.093Z,100393.98
2022-07-28T02:51:02.823Z,100398.91
2022-07-28T02:53:36.220Z,100398.26
2022-07-28T02:56:10.369Z,100401.84
2022-07-28T02:58:43.880Z,100402.11
2022-07-28T03:01:18.977Z,100401.20
2022-07-28T03:03:55.173Z,100397.70
2022-07-28T03:06:28.922Z,100401.20
2022-07-28T03:09:02.309Z,100401.38
2022-07-28T03:11:34.919Z,100397.63
2022-07-28T03:14:07.294Z,100393.16
2022-07-28T03:16:40.002Z,100393.35
2022-07-28T03:19:12.418Z,100393.24
2022-07-28T03:21:49.634Z,100392.02
2022-07-28T03:24:24.663Z,100396.34
2022-07-28T03:27:03.878Z,100398.84
2022-07-28T03:29:38.211Z,100406.39
2022-07-28T03:32:11.898Z,100406.51
2022-07-28T03:34:44.455Z,100411.27
2022-07-28T03:37:20.106Z,100418.45
2022-07-28T03:39:56.311Z,100421.09
2022-07-28T03:42:31.280Z,100422.59
2022-07-28T03:45:03.917Z,100428.30
2022-07-28T03:47:36.628Z,100424.74
2022-07-28T03:50:10.304Z,100428.48
2022-07-28T03:52:42.862Z,100434.52
2022-07-28T03:55:16.716Z,100436.98
2022-07-28T03:57:49.240Z,100431.72
2022-07-28T04:00:22.712Z,100441.02
2022-07-28T04:02:55.217Z,100439.40
2022-07-28T04:05:27.547Z,100448.48
2022-07-28T04:08:00.317Z,100450.09
2022-07-28T04:10:33.065Z,100453.80
2022-07-28T04:13:06.054Z,100457.69
2022-07-28T04:15:38.602Z,100463.34
2022-07-28T04:18:11.899Z,100470.42
2022-07-28T04:20:44.534Z,100472.58
2022-07-28T04:23:19.012Z,100477.64
2022-07-28T04:25:51.909Z,100479.00
2022-07-28T04:28:24.472Z,100481.60
2022-07-28T04:30:57.173Z,100482.13
2022-07-28T04:33:30.680Z,100483.77
2022-07-28T04:36:03.562Z,100480.23
2022-07-28T04:38:36.405Z,100484.92
2022-07-28T04:41:09.081Z,100485.80
2022-07-28T04:43:41.945Z,100479.85
2022-07-28T04:46:15.384Z,100479.94
2022-07-28T04:48:48.293Z,100488.84
2022-07-28T04:51:21.776Z,100487.73
2022-07-28T04:53:55.179Z,100492.43
2022-07-28T04:56:46.353Z,100489.29
2022-07-28T04:59:22.200Z,100497.82
2022-07-28T05:01:57.746Z,100498.92
2022-07-28T05:04:34.909Z,100499.85
2022-07-28T05:07:12.531Z,100500.84
2022-07-28T05:09:44.082Z,100503.45
2022-07-28T05:16:23.834Z,100520.11
2022-07-28T05:18:56.725Z,100529.55
2022-07-28T05:21:29.362Z,100536.03
2022-07-28T05:24:01.746Z,100550.01
2022-07-28T05:26:37.810Z,100562.42
2022-07-28T05:29:11.492Z,100570.84
2022-07-28T05:31:43.907Z,100573.77
2022-07-28T05:34:16.861Z,100571.11
2022-07-28T05:36:50.488Z,100560.90
2022-07-28T05:39:22.826Z,100557.03
2022-07-28T05:41:55.218Z,100557.81
2022-07-28T05:44:27.828Z,100560.63
2022-07-28T05:47:00.224Z,100555.83
2022-07-28T05:49:32.876Z,100562.35
2022-07-28T05:52:05.415Z,100566.17
2022-07-28T05:54:38.004Z,100567.19
2022-07-28T05:57:10.579Z,100564.27
2022-07-28T05:59:46.454Z,100567.42
2022-07-28T06:02:18.930Z,100567.71
2022-07-28T06:04:51.852Z,100558.77
2022-07-28T06:07:43.813Z,100553.27
2022-07-28T06:10:18.444Z,100551.52
2022-07-28T06:12:52.588Z,100554.93
2022-07-28T06:15:27.334Z,100561.08
2022-07-28T06:17:59.606Z,100564.36
2022-07-28T06:20:32.090Z,100563.63
2022-07-28T06:23:05.737Z,100566.41
2022-07-28T06:25:38.226Z,100572.58
2022-07-28T06:28:10.567Z,100577.54
2022-07-28T06:30:43.096Z,100580.77
2022-07-28T06:33:17.363Z,100584.35
2022-07-28T06:35:52.361Z,100592.33
2022-07-28T06:38:25.719Z,100590.00
2022-07-28T06:40:58.395Z,100593.19
2022-07-28T06:43:31.054Z,100594.39
2022-07-28T06:46:04.000Z,100593.40
2022-07-28T06:48:39.495Z,100594.42
2022-07-28T06:51:12.341Z,100587.75
2022-07-28T06:53:44.636Z,100591.03
2022-07-28T06:56:21.717Z,100599.02
2022-07-28T06:58:56.015Z,100599.01
2022-07-28T07:01:28.470Z,100598.16
2022-07-28T07:04:00.995Z,100601.85
2022-07-28T07:06:33.499Z,100604.10
2022-07-28T07:09:06.033Z,100609.36
2022-07-28T07:11:39.214Z,100614.58
2022-07-28T07:14:11.385Z,100609.19
2022-07-28T07:16:43.961Z,100608.50
2022-07-28T07:19:16.554Z,100608.14
2022-07-28T07:21:49.111Z,100612.73
2022-07-28T07:24:22.442Z,100609.00
2022-07-28T07:26:55.533Z,100602.94
2022-07-28T07:29:30.488Z,100603.61
2022-07-28T07:32:06.930Z,100601.29
2022-07-28T07:34:42.956Z,100594.63
2022-07-28T07:37:15.369Z,100593.64
2022-07-28T07:39:47.750Z,100582.69
2022-07-28T07:42:20.465Z,100584.95
2022-07-28T07:44:57.449Z,100586.84
2022-07-28T07:47:30.062Z,100585.55
2022-07-28T07:50:04.293Z,100588.10
2022-07-28T07:52:37.382Z,100590.05
2022-07-28T07:55:11.265Z,100589.59
2022-07-28T07:57:43.703Z,100588.04
2022-07-28T08:00:30.545Z,100589.48
2022-07-28T08:03:03.166Z,100592.24
2022-07-28T08:05:36.397Z,100589.55
2022-07-28T08:08:09.047Z,100592.41
2022-07-28T08:10:41.744Z,100593.80
2022-07-28T08:13:14.251Z,100596.13
2022-07-28T08:15:46.896Z,100595.70
2022-07-28T08:18:20.697Z,100598.88
2022-07-28T08:20:53.080Z,100599.52
2022-07-28T08:23:26.391Z,100600.96
2022-07-28T08:25:58.749Z,100605.34
2022-07-28T08:28:31.225Z,100605.99
2022-07-28T08:31:03.774Z,100606.05
2022-07-28T08:33:36.321Z,100612.82
2022-07-28T08:36:27.069Z,100609.65
2022-07-28T08:38:59.572Z,100618.10
2022-07-28T08:41:38.627Z,100617.52
2022-07-28T08:44:12.268Z,100620.20
2022-07-28T08:46:47.733Z,100623.54
2022-07-28T08:49:21.384Z,100629.52
2022-07-28T08:51:57.224Z,100632.54
2022-07-28T08:54:31.611Z,100629.54
2022-07-28T08:57:04.990Z,100632.54
2022-07-28T08:59:38.280Z,100635.63
2022-07-28T09:02:14.009Z,100641.23
2022-07-28T09:04:47.432Z,100643.34
2022-07-28T09:07:20.365Z,100645.60
2022-07-28T09:09:57.422Z,100649.77
2022-07-28T09:12:36.791Z,100653.25
2022-07-28T09:15:12.229Z,100651.80
2022-07-28T09:17:45.553Z,100651.70
2022-07-28T09:20:21.377Z,100648.13
2022-07-28T09:23:02.748Z,100643.11
2022-07-28T09:25:35.994Z,100640.92
2022-07-28T09:28:14.528Z,100636.70
2022-07-28T09:30:53.946Z,100637.17
2022-07-28T09:33:42.004Z,100637.31
2022-07-28T09:36:18.423Z,100636.34
2022-07-28T09:38:51.097Z,100635.08
2022-07-28T09:41:24.124Z,100639.11
2022-07-28T09:43:56.751Z,100640.39
2022-07-28T09:46:30.974Z,100646.05
2022-07-28T09:49:04.087Z,100642.73
2022-07-28T09:51:40.329Z,100647.81
2022-07-28T09:54:15.183Z,100644.89
2022-07-28T09:56:49.416Z,100647.40
2022-07-28T09:59:22.452Z,100647.13
2022-07-28T10:01:56.698Z,100646.70
2022-07-28T10:04:37.453Z,100645.64
2022-07-28T10:07:14.016Z,100644.31
2022-07-28T10:09:57.433Z,100638.40
2022-07-28T10:12:31.469Z,100633.05
2022-07-28T10:15:31.475Z,100636.29
2022-07-28T10:18:04.144Z,100642.27
2022-07-28T10:20:38.565Z,100641.25
2022-07-28T10:23:13.710Z,100639.08
2022-07-28T10:25:46.756Z,100639.48
2022-07-28T10:28:21.837Z,100635.30
2022-07-28T10:30:59.117Z,100626.73
2022-07-28T10:33:34.189Z,100633.80
2022-07-28T10:36:08.392Z,100627.22
2022-07-28T10:38:42.027Z,100629.20
2022-07-28T10:41:17.274Z,100629.16
2022-07-28T10:43:51.248Z,100633.80
2022-07-28T10:46:24.773Z,100631.86
2022-07-28T10:48:58.069Z,100626.10
2022-07-28T10:51:31.259Z,100625.86
2022-07-28T10:54:12.274Z,100626.48
2022-07-28T10:56:57.117Z,100626.77
2022-07-28T11:00:13.379Z,100626.83
2022-07-28T11:02:57.247Z,100624.36
2022-07-28T11:05:36.751Z,100619.06
2022-07-28T11:08:28.068Z,100619.88
2022-07-28T11:11:09.076Z,100612.95
2022-07-28T11:13:42.225Z,100615.23
2022-07-28T11:16:25.088Z,100619.50
2022-07-28T11:19:36.546Z,100620.89
2022-07-28T11:22:34.264Z,100623.06
2022-07-28T11:25:22.234Z,100623.16
2022-07-28T11:28:06.087Z,100618.58
2022-07-28T11:30:55.859Z,100610.44
2022-07-28T11:33:57.703Z,100611.48
2022-07-28T11:37:07.459Z,100609.59
2022-07-28T11:39:44.080Z,100604.85
2022-07-28T11:42:28.913Z,100602.36
2022-07-28T11:45:34.271Z,100603.02
2022-07-28T11:48:21.706Z,100605.95
2022-07-28T11:51:13.632Z,100613.58
2022-07-28T11:53:48.594Z,100609.13
2022-07-28T11:56:26.622Z,100609.19
2022-07-28T11:59:01.681Z,100608.42
2022-07-28T12:01:38.519Z,100613.48
2022-07-28T12:04:16.160Z,100608.52
2022-07-28T12:06:52.368Z,100604.48
2022-07-28T12:09:41.357Z,100603.73
2022-07-28T12:12:15.469Z,100603.86
2022-07-28T12:14:48.171Z,100604.75
2022-07-28T12:17:20.678Z,100604.02
2022-07-28T12:19:53.130Z,100607.39
2022-07-28T12:22:26.799Z,100603.73
2022-07-28T12:25:01.220Z,100599.10
2022-07-28T12:27:37.668Z,100600.70
2022-07-28T12:30:13.116Z,100596.22
2022-07-28T12:32:45.662Z,100590.88
2022-07-28T12:35:18.305Z,100595.54
2022-07-28T12:37:51.984Z,100592.95
2022-07-28T12:40:27.493Z,100588.17
2022-07-28T12:43:00.169Z,100583.75
2022-07-28T12:45:33.476Z,100580.88
2022-07-28T12:48:10.577Z,100580.48
2022-07-28T12:50:43.082Z,100573.81
2022-07-28T12:53:18.305Z,100577.29
2022-07-28T12:55:50.615Z,100576.19
2022-07-28T12:58:29.003Z,100575.52
2022-07-28T13:01:01.756Z,100570.21
2022-07-28T13:03:34.291Z,100568.31
2022-07-28T13:06:15.229Z,100563.90
2022-07-28T13:08:49.276Z,100559.15
2022-07-28T13:11:47.408Z,100563.89
2022-07-28T13:14:39.345Z,100561.31
2022-07-28T13:17:12.157Z,100550.13
2022-07-28T13:19:45.588Z,100546.02
2022-07-28T13:22:29.049Z,100550.07
2022-07-28T13:25:02.050Z,100541.30
2022-07-28T13:27:35.786Z,100529.80
2022-07-28T13:30:10.982Z,100531.79
2022-07-28T13:32:43.390Z,100527.44
2022-07-28T13:35:21.686Z,100522.21
2022-07-28T13:37:55.048Z,100519.02
2022-07-28T13:40:27.695Z,100527.75
2022-07-28T13:43:00.031Z,100512.96
2022-07-28T13:45:32.626Z,100521.29
2022-07-28T13:48:05.536Z,100507.48
2022-07-28T13:50:39.419Z,100517.70
2022-07-28T13:53:29.592Z,100516.84
2022-07-28T13:56:02.157Z,100518.13
2022-07-28T13:58:34.927Z,100519.43
2022-07-28T14:01:07.827Z,100522.39
2022-07-28T14:03:55.405Z,100523.16
2022-07-28T14:06:29.925Z,100525.23
2022-07-28T14:09:04.213Z,100525.02
2022-07-28T14:11:37.270Z,100527.80
2022-07-28T14:14:09.694Z,100528.16
2022-07-28T14:16:47.472Z,100531.23
2022-07-28T14:19:22.998Z,100531.52
2022-07-28T14:22:00.581Z,100533.89
2022-07-28T14:24:33.186Z,100533.62
2022-07-28T14:27:06.210Z,100537.40
2022-07-28T14:29:39.034Z,100543.15
2022-07-28T14:32:11.462Z,100539.04
2022-07-28T14:34:43.841Z,100538.64
2022-07-28T14:37:17.508Z,100534.09
2022-07-28T14:39:49.865Z,100536.44
2022-07-28T14:42:22.440Z,100539.36
2022-07-28T14:44:55.007Z,100533.63
2022-07-28T14:47:44.517Z,100528.27
2022-07-28T14:50:17.436Z,100522.17
2022-07-28T14:52:49.795Z,100522.35
2022-07-28T14:55:22.388Z,100522.92
2022-07-28T14:57:55.289Z,100526.55
2022-07-28T15:00:29.641Z,100525.97
2022-07-28T15:03:02.233Z,100526.97
2022-07-28T15:05:34.796Z,100529.13
2022-07-28T15:08:07.622Z,100524.62
2022-07-28T15:10:40.409Z,100524.71
2022-07-28T15:13:13.138Z,100523.71
2022-07-28T15:15:45.601Z,100525.00
2022-07-28T15:18:18.214Z,100523.92
2022-07-28T15:20:50.708Z,100523.28
2022-07-28T15:23:23.377Z,100525.60
2022-07-28T15:25:56.274Z,100522.45
2022-07-28T15:28:28.871Z,100515.55
2022-07-28T15:31:01.661Z,100512.06
2022-07-28T15:33:38.921Z,100518.03
2022-07-28T15:36:20.877Z,100513.59
2022-07-28T15:38:53.555Z,100510.65
2022-07-28T15:41:25.845Z,100513.06
2022-07-28T15:43:58.586Z,100513.70
2022-07-28T15:46:31.088Z,100514.09
2022-07-28T15:49:07.694Z,100511.72
2022-07-28T15:51:41.457Z,100511.41
2022-07-28T15:54:14.346Z,100509.20
2022-07-28T15:56:47.102Z,100514.33
2022-07-28T15:59:21.473Z,100523.52
2022-07-28T16:01:53.944Z,100527.56
2022-07-28T16:04:26.631Z,100532.53
2022-07-28T16:07:17.409Z,100533.27
2022-07-28T16:09:50.188Z,100541.63
2022-07-28T16:12:23.263Z,100551.10
2022-07-28T16:14:56.239Z,100558.79
2022-07-28T16:17:28.667Z,100570.64
2022-07-28T16:20:02.989Z,100571.52
2022-07-28T16:22:41.228Z,100579.66
2022-07-28T16:25:19.986Z,100579.67
2022-07-28T16:27:52.818Z,100583.38
2022-07-28T16:30:28.525Z,100585.70
2022-07-28T16:33:03.785Z,100584.77
2022-07-28T16:35:36.489Z,100594.92
2022-07-28T16:38:11.799Z,100598.99
2022-07-28T16:40:44.440Z,100599.02
2022-07-28T16:43:19.198Z,100606.27
2022-07-28T16:45:51.576Z,100617.47
2022-07-28T16:48:26.840Z,100622.55
2022-07-28T16:50:59.597Z,100627.20
2022-07-28T16:53:32.202Z,100629.16
2022-07-28T16:56:04.757Z,100630.76
2022-07-28T16:58:37.857Z,100633.90
2022-07-28T17:01:10.394Z,100632.02
2022-07-28T17:03:44.926Z,100636.55
2022-07-28T17:06:17.400Z,100642.75
2022-07-28T17:08:49.873Z,100640.52
2022-07-28T17:11:28.278Z,100641.92
2022-07-28T17:14:00.866Z,100644.85
2022-07-28T17:16:33.968Z,100654.25
2022-07-28T17:19:06.728Z,100658.73
2022-07-28T17:21:40.031Z,100654.64
2022-07-28T17:24:13.914Z,100653.19
2022-07-28T17:29:42.728Z,100650.49
2022-07-28T17:32:27.097Z,100647.71
2022-07-28T17:35:00.868Z,100653.34
2022-07-28T17:37:33.578Z,100659.89
2022-07-28T17:40:07.402Z,100657.89
2022-07-28T17:42:40.717Z,100660.53
2022-07-28T17:45:16.082Z,100659.83
2022-07-28T17:47:48.619Z,100664.11
2022-07-28T17:50:21.476Z,100665.77
2022-07-28T17:52:54.562Z,100660.75
2022-07-28T17:55:57.551Z,100664.27
2022-07-28T17:58:32.238Z,100662.95
2022-07-28T18:01:10.119Z,100667.62
2022-07-28T18:03:57.841Z,100675.00
2022-07-28T18:06:35.383Z,100680.87
2022-07-28T18:09:14.496Z,100687.86
2022-07-28T18:11:57.652Z,100695.61
2022-07-28T18:14:33.826Z,100697.05
2022-07-28T18:17:07.674Z,100700.88
2022-07-28T18:19:45.262Z,100703.52
2022-07-28T18:22:18.119Z,100712.52
2022-07-28T18:24:51.032Z,100719.42
2022-07-28T18:27:24.154Z,100720.92
2022-07-28T18:29:56.584Z,100725.65
2022-07-28T18:32:29.041Z,100726.73
2022-07-28T18:35:01.991Z,100735.42
2022-07-28T18:37:34.513Z,100741.18
2022-07-28T18:40:10.980Z,100741.78
2022-07-28T18:42:43.633Z,100743.34
2022-07-28T18:45:21.790Z,100740.67
2022-07-28T18:47:58.842Z,100736.04
2022-07-28T18:50:35.774Z,100740.80
2022-07-28T18:53:13.163Z,100739.83
2022-07-28T18:55:46.517Z,100742.88
2022-07-28T18:58:18.741Z,100747.02
2022-07-28T19:00:51.895Z,100740.89
2022-07-28T19:03:24.136Z,100745.76
2022-07-28T19:05:56.920Z,100749.06
2022-07-28T19:08:29.401Z,100746.60
2022-07-28T19:11:01.985Z,100749.06
2022-07-28T19:13:34.417Z,100748.48
2022-07-28T19:16:07.285Z,100747.21
2022-07-28T19:18:39.616Z,100747.39
2022-07-28T19:21:12.296Z,100740.74
2022-07-28T19:23:44.517Z,100734.59
2022-07-28T19:26:17.171Z,100735.75
2022-07-28T19:28:49.651Z,100734.55
2022-07-28T19:31:22.284Z,100732.31
2022-07-28T19:33:55.973Z,100729.88
2022-07-28T19:36:29.229Z,100722.54
2022-07-28T19:39:01.474Z,100715.14
2022-07-28T19:41:34.443Z,100717.17
2022-07-28T19:44:07.156Z,100727.71
2022-07-28T19:46:39.885Z,100726.68
2022-07-28T19:49:13.314Z,100722.47
2022-07-28T19:51:46.091Z,100723.50
2022-07-28T19:54:21.180Z,100725.39
2022-07-28T19:56:54.395Z,100720.06
2022-07-28T19:59:27.883Z,100717.71
2022-07-28T20:02:00.679Z,100723.25
2022-07-28T20:04:33.026Z,100730.69
2022-07-28T20:07:05.873Z,100732.16
2022-07-28T20:09:38.783Z,100739.05
2022-07-28T20:12:11.419Z,100744.84
2022-07-28T20:14:44.340Z,100750.17
2022-07-28T20:17:35.994Z,100750.49
2022-07-28T20:20:11.791Z,100754.89
2022-07-28T20:22:46.274Z,100759.27
2022-07-28T20:25:18.841Z,100756.79
2022-07-28T20:27:51.663Z,100756.15
2022-07-28T20:30:24.355Z,100761.98
2022-07-28T20:32:57.074Z,100758.63
2022-07-28T20:35:30.456Z,100759.09
2022-07-28T20:38:07.619Z,100761.20
2022-07-28T20:40:40.082Z,100758.63
2022-07-28T20:43:12.808Z,100759.10
2022-07-28T20:45:45.815Z,100763.64
2022-07-28T20:48:33.820Z,100762.09
2022-07-28T20:51:06.203Z,100767.09
2022-07-28T20:53:38.786Z,100770.50
2022-07-28T20:56:11.500Z,100770.62
2022-07-28T20:58:44.023Z,100772.93
2022-07-28T21:01:17.395Z,100774.11
2022-07-28T21:03:54.203Z,100777.50
2022-07-28T21:06:27.699Z,100781.05
2022-07-28T21:09:02.114Z,100780.04
2022-07-28T21:11:34.957Z,100778.85
2022-07-28T21:14:08.803Z,100779.58
2022-07-28T21:16:43.527Z,100782.98
2022-07-28T21:19:16.357Z,100781.30
2022-07-28T21:21:48.938Z,100784.91
2022-07-28T21:24:21.668Z,100791.49
2022-07-28T21:26:54.255Z,100798.63
2022-07-28T21:29:27.177Z,100800.98
2022-07-28T21:32:05.498Z,100804.15
2022-07-28T21:34:39.489Z,100803.35
2022-07-28T21:37:13.226Z,100802.96
2022-07-28T21:39:46.175Z,100802.19
2022-07-28T21:42:19.077Z,100798.94
2022-07-28T21:44:52.079Z,100808.11
2022-07-28T21:47:24.847Z,100813.66
2022-07-28T21:49:58.799Z,100816.45
2022-07-28T21:52:31.378Z,100815.60
2022-07-28T21:55:05.053Z,100815.73
2022-07-28T21:57:38.443Z,100816.06
2022-07-28T22:00:14.267Z,100812.21
2022-07-28T22:02:46.799Z,100814.96
2022-07-28T22:05:19.741Z,100806.80
2022-07-28T22:07:52.598Z,100801.48
2022-07-28T22:10:26.239Z,100804.15
2022-07-28T22:12:59.821Z,100799.02
2022-07-28T22:15:33.179Z,100805.05
2022-07-28T22:18:06.463Z,100808.02
2022-07-28T22:20:39.197Z,100810.45
2022-07-28T22:23:29.247Z,100816.00
2022-07-28T22:26:04.569Z,100826.66
2022-07-28T22:28:41.465Z,100829.70
2022-07-28T22:31:14.203Z,100831.40
2022-07-28T22:33:46.773Z,100837.44
2022-07-28T22:36:19.475Z,100838.63
2022-07-28T22:38:56.831Z,100841.93
2022-07-28T22:41:30.228Z,100840.84
2022-07-28T22:44:03.126Z,100843.86
2022-07-28T22:46:36.579Z,100840.52
2022-07-28T22:49:10.428Z,100839.24
2022-07-28T22:51:47.998Z,100839.80
2022-07-28T22:54:19.366Z,100840.01
2022-07-28T22:56:52.161Z,100830.02
2022-07-28T22:59:25.195Z,100827.50
2022-07-28T23:01:58.280Z,100825.56
2022-07-28T23:04:31.655Z,100828.35
2022-07-28T23:07:04.738Z,100832.74
2022-07-28T23:09:45.310Z,100833.56
2022-07-28T23:12:19.586Z,100833.45
2022-07-28T23:14:52.299Z,100834.49
2022-07-28T23:17:26.359Z,100835.23
2022-07-28T23:20:02.042Z,100835.06
2022-07-28T23:22:34.842Z,100833.73
2022-07-28T23:25:08.892Z,100833.37
2022-07-28T23:27:41.595Z,100829.97
2022-07-28T23:30:16.578Z,100825.22
2022-07-28T23:32:52.748Z,100826.33
2022-07-28T23:35:25.704Z,100822.09
2022-07-28T23:37:58.805Z,100817.04
2022-07-28T23:40:31.847Z,100814.50
2022-07-28T23:43:04.774Z,100809.65
2022-07-28T23:45:37.583Z,100805.25
2022-07-28T23:48:10.906Z,100800.03
2022-07-28T23:50:43.331Z,100791.08
2022-07-28T23:53:17.230Z,100788.40
2022-07-28T23:55:50.065Z,100788.73
2022-07-28T23:58:23.282Z,100786.40
